4XCWC LLHZ-LLHZ

Flight info

Callsign 4XCWC
Flight time 0h 23m
Altitude 800
Route CVFR
Aircraft C172/L-VD/A

Departure

Time 2026-04-12 17:11
Airport Herzliya Airport (LLHZ)

Arrival

Time 2026-04-12 17:34
Airport Herzliya Airport (LLHZ)
Time Latitude Longitude Altitude Speed Heading
2026-04-12 17:01 32.17881 34.83779 126 ft 0 kts 110°
2026-04-12 17:08 32.17892 34.83807 122 ft 8 kts 104°
2026-04-12 17:08 32.17905 34.83830 124 ft 0 kts 13°
2026-04-12 17:08 32.17927 34.83811 126 ft 9 kts 290°
2026-04-12 17:08 32.18000 34.83559 113 ft 53 kts 288°
2026-04-12 17:09 32.18139 34.83058 209 ft 68 kts 288°
2026-04-12 17:09 32.18483 34.82775 449 ft 75 kts
2026-04-12 17:09 32.18970 34.83089 586 ft 88 kts 25°
2026-04-12 17:11 32.19353 34.83301 793 ft 77 kts 12°
2026-04-12 17:11 32.19893 34.83471 1001 ft 81 kts
2026-04-12 17:12 32.20520 34.83578 1102 ft 97 kts
2026-04-12 17:12 32.21203 34.83688 1252 ft 104 kts
2026-04-12 17:12 32.21904 34.83781 1444 ft 104 kts
2026-04-12 17:12 32.22213 34.83844 1475 ft 106 kts
2026-04-12 17:13 32.22362 34.83876 1507 ft 106 kts
2026-04-12 17:14 32.23168 34.84034 1423 ft 123 kts
2026-04-12 17:14 32.24030 34.84220 1361 ft 129 kts
2026-04-12 17:14 32.24823 34.84411 1201 ft 98 kts 13°
2026-04-12 17:14 32.25419 34.84665 1114 ft 97 kts 20°
2026-04-12 17:15 32.26099 34.85010 1106 ft 116 kts 19°
2026-04-12 17:15 32.26928 34.85308 955 ft 126 kts 12°
2026-04-12 17:15 32.27167 34.85949 1108 ft 102 kts 143°
2026-04-12 17:15 32.26469 34.85977 909 ft 109 kts 194°
2026-04-12 17:16 32.25743 34.85811 841 ft 88 kts 237°
2026-04-12 17:16 32.25167 34.85739 733 ft 89 kts 202°
2026-04-12 17:16 32.24876 34.85616 756 ft 99 kts 203°
2026-04-12 17:17 32.24342 34.85355 736 ft 113 kts 208°
2026-04-12 17:18 32.23596 34.84993 797 ft 113 kts 204°
2026-04-12 17:18 32.22976 34.84759 1143 ft 89 kts 201°
2026-04-12 17:18 32.22374 34.84484 1296 ft 98 kts 208°
2026-04-12 17:18 32.21960 34.84252 1287 ft 107 kts 210°
2026-04-12 17:19 32.21747 34.84129 1293 ft 109 kts 210°
2026-04-12 17:19 32.21106 34.83758 1141 ft 100 kts 208°
2026-04-12 17:19 32.20446 34.83467 885 ft 101 kts 206°
2026-04-12 17:19 32.19821 34.83149 736 ft 93 kts 213°
2026-04-12 17:20 32.19595 34.83011 694 ft 89 kts 215°
2026-04-12 17:20 32.19178 34.82845 599 ft 90 kts 190°
2026-04-12 17:20 32.18874 34.83416 430 ft 92 kts 105°
2026-04-12 17:21 32.18646 34.84135 481 ft 94 kts 110°
2026-04-12 17:21 32.18449 34.84947 591 ft 112 kts 105°
2026-04-12 17:21 32.17950 34.85314 741 ft 89 kts 186°
2026-04-12 17:21 32.17433 34.85098 719 ft 83 kts 274°
2026-04-12 17:22 32.17694 34.84461 440 ft 77 kts 296°
2026-04-12 17:22 32.17883 34.83927 166 ft 66 kts 292°
2026-04-12 17:22 32.18029 34.83450 109 ft 50 kts 292°
2026-04-12 17:22 32.18136 34.83000 159 ft 65 kts 282°
2026-04-12 17:23 32.18373 34.82570 314 ft 77 kts
2026-04-12 17:23 32.18768 34.82738 406 ft 87 kts 17°
2026-04-12 17:24 32.19264 34.82999 513 ft 99 kts 40°
2026-04-12 17:24 32.19172 34.83809 599 ft 120 kts 125°
2026-04-12 17:25 32.18803 34.84695 680 ft 119 kts 111°
2026-04-12 17:25 32.18339 34.85350 718 ft 101 kts 181°
2026-04-12 17:25 32.17639 34.85330 674 ft 95 kts 210°
2026-04-12 17:25 32.17604 34.84711 567 ft 86 kts 296°
2026-04-12 17:26 32.17815 34.84142 276 ft 70 kts 291°
2026-04-12 17:26 32.17969 34.83659 128 ft 50 kts 290°
2026-04-12 17:26 32.18116 34.83154 121 ft 80 kts 290°
2026-04-12 17:26 32.18414 34.82733 406 ft 77 kts
2026-04-12 17:27 32.18976 34.82942 540 ft 87 kts 18°
2026-04-12 17:27 32.19335 34.83426 781 ft 91 kts 99°
2026-04-12 17:27 32.19082 34.84245 768 ft 116 kts 110°
2026-04-12 17:27 32.18805 34.85106 787 ft 108 kts 107°
2026-04-12 17:28 32.18304 34.85436 865 ft 92 kts 196°
2026-04-12 17:28 32.17664 34.85228 813 ft 95 kts 203°
2026-04-12 17:28 32.17565 34.84650 650 ft 94 kts 308°
2026-04-12 17:28 32.17840 34.84044 272 ft 79 kts 294°
2026-04-12 17:29 32.18009 34.83521 118 ft 52 kts 293°
2026-04-12 17:29 32.18153 34.83037 115 ft 76 kts 292°
2026-04-12 17:29 32.18478 34.82725 367 ft 77 kts 17°
2026-04-12 17:29 32.18997 34.82980 569 ft 77 kts 18°
2026-04-12 17:30 32.19434 34.83346 755 ft 90 kts 75°
2026-04-12 17:30 32.19191 34.84134 771 ft 115 kts 121°
2026-04-12 17:30 32.18782 34.84947 906 ft 112 kts 126°
2026-04-12 17:30 32.18178 34.85398 909 ft 103 kts 183°
2026-04-12 17:31 32.17531 34.85196 835 ft 98 kts 255°
2026-04-12 17:31 32.17698 34.84493 493 ft 81 kts 291°
2026-04-12 17:31 32.17891 34.83911 177 ft 71 kts 291°
2026-04-12 17:31 32.18032 34.83420 118 ft 67 kts 285°
2026-04-12 17:32 32.18230 34.82884 292 ft 75 kts 312°
2026-04-12 17:32 32.18764 34.82848 402 ft 90 kts
2026-04-12 17:32 32.19373 34.83097 621 ft 98 kts 36°
2026-04-12 17:32 32.19289 34.83855 765 ft 113 kts 117°
2026-04-12 17:33 32.18986 34.84784 790 ft 125 kts 112°
2026-04-12 17:33 32.18534 34.85498 820 ft 99 kts 175°
2026-04-12 17:33 32.17903 34.85312 665 ft 93 kts 208°
2026-04-12 17:33 32.17641 34.84739 496 ft 82 kts 281°
2026-04-12 17:34 32.17816 34.84160 246 ft 69 kts 289°
2026-04-12 17:34 32.17970 34.83646 117 ft 61 kts 292°
2026-04-12 17:34 32.18057 34.83359 106 ft 17 kts 281°
2026-04-12 17:34 32.18050 34.83334 107 ft 1 kts 210°
2026-04-12 17:35 32.18027 34.83334 107 ft 8 kts 184°
2026-04-12 17:35 32.18016 34.83334 107 ft 0 kts 180°